createdAt,value
2024-01-18T00:00:14.666Z,-0.20
2024-01-18T00:01:16.746Z,-0.18
2024-01-18T00:02:18.779Z,-0.19
2024-01-18T00:03:20.822Z,-0.19
2024-01-18T00:04:23.061Z,-0.19
2024-01-18T00:05:25.135Z,-0.19
2024-01-18T00:06:28.345Z,-0.18
2024-01-18T00:07:30.927Z,-0.18
2024-01-18T00:08:33.019Z,-0.17
2024-01-18T00:09:35.036Z,-0.19
2024-01-18T00:10:37.026Z,-0.17
2024-01-18T00:11:39.030Z,-0.17
2024-01-18T00:12:41.132Z,-0.16
2024-01-18T00:13:43.578Z,-0.16
2024-01-18T00:14:45.607Z,-0.16
2024-01-18T00:15:47.612Z,-0.16
2024-01-18T00:16:49.595Z,-0.18
2024-01-18T00:17:51.866Z,-0.19
2024-01-18T00:18:54.105Z,-0.21
2024-01-18T00:19:56.383Z,-0.24
2024-01-18T00:20:58.432Z,-0.26
2024-01-18T00:22:00.620Z,-0.27
2024-01-18T00:23:02.629Z,-0.28
2024-01-18T00:24:04.901Z,-0.26
2024-01-18T00:25:08.205Z,-0.26
2024-01-18T00:26:10.610Z,-0.29
2024-01-18T00:27:12.942Z,-0.29
2024-01-18T00:28:14.971Z,-0.30
2024-01-18T00:29:17.019Z,-0.29
2024-01-18T00:30:19.848Z,-0.28
2024-01-18T00:31:21.947Z,-0.28
2024-01-18T00:32:24.782Z,-0.28
2024-01-18T00:33:27.024Z,-0.27
2024-01-18T00:34:29.156Z,-0.30
2024-01-18T00:35:31.238Z,-0.34
2024-01-18T00:36:33.333Z,-0.35
2024-01-18T00:37:35.332Z,-0.35
2024-01-18T00:38:37.344Z,-0.35
2024-01-18T00:39:43.467Z,-0.35
2024-01-18T00:40:45.570Z,-0.35
2024-01-18T00:41:48.363Z,-0.33
2024-01-18T00:42:50.372Z,-0.33
2024-01-18T00:43:52.334Z,-0.31
2024-01-18T00:44:54.354Z,-0.32
2024-01-18T00:45:56.364Z,-0.30
2024-01-18T00:46:58.395Z,-0.31
2024-01-18T00:48:00.528Z,-0.35
2024-01-18T00:49:02.836Z,-0.35
2024-01-18T00:50:05.382Z,-0.34
2024-01-18T00:51:07.429Z,-0.32
2024-01-18T00:52:09.453Z,-0.33
2024-01-18T00:53:11.441Z,-0.33
2024-01-18T00:54:13.420Z,-0.34
2024-01-18T00:55:15.505Z,-0.34
2024-01-18T00:56:17.540Z,-0.32
2024-01-18T00:57:19.569Z,-0.34
2024-01-18T00:58:21.620Z,-0.36
2024-01-18T00:59:23.602Z,-0.40
2024-01-18T01:00:25.638Z,-0.42
2024-01-18T01:01:27.668Z,-0.41
2024-01-18T01:02:29.700Z,-0.44
2024-01-18T01:03:31.908Z,-0.45
2024-01-18T01:04:34.060Z,-0.44
2024-01-18T01:05:36.157Z,-0.43
2024-01-18T01:06:38.266Z,-0.44
2024-01-18T01:07:40.374Z,-0.45
2024-01-18T01:08:42.410Z,-0.45
2024-01-18T01:09:44.532Z,-0.45
2024-01-18T01:10:46.515Z,-0.47
2024-01-18T01:11:48.480Z,-0.46
2024-01-18T01:12:50.469Z,-0.47
2024-01-18T01:13:52.501Z,-0.50
2024-01-18T01:14:54.576Z,-0.53
2024-01-18T01:15:56.708Z,-0.54
2024-01-18T01:16:58.753Z,-0.53
2024-01-18T01:18:00.840Z,-0.53
2024-01-18T01:19:03.010Z,-0.52
2024-01-18T01:20:06.826Z,-0.51
2024-01-18T01:21:09.880Z,-0.51
2024-01-18T01:22:11.943Z,-0.53
2024-01-18T01:23:13.948Z,-0.52
2024-01-18T01:24:16.029Z,-0.53
2024-01-18T01:25:18.116Z,-0.52
2024-01-18T01:26:20.215Z,-0.50
2024-01-18T01:27:22.302Z,-0.49
2024-01-18T01:28:24.388Z,-0.50
2024-01-18T01:29:26.365Z,-0.50
2024-01-18T01:30:28.426Z,-0.50
2024-01-18T01:31:30.465Z,-0.51
2024-01-18T01:32:32.499Z,-0.49
2024-01-18T01:33:35.511Z,-0.48
2024-01-18T01:34:37.612Z,-0.49
2024-01-18T01:35:39.619Z,-0.48
2024-01-18T01:36:41.678Z,-0.48
2024-01-18T01:37:43.716Z,-0.50
2024-01-18T01:38:45.747Z,-0.50
2024-01-18T01:39:47.734Z,-0.51
2024-01-18T01:40:49.753Z,-0.53
2024-01-18T01:41:51.789Z,-0.54
2024-01-18T01:42:53.909Z,-0.56
2024-01-18T01:43:57.425Z,-0.55
2024-01-18T01:44:59.415Z,-0.55
2024-01-18T01:46:01.450Z,-0.56
2024-01-18T01:47:03.467Z,-0.54
2024-01-18T01:48:08.011Z,-0.57
2024-01-18T01:49:10.208Z,-0.58
2024-01-18T01:50:12.624Z,-0.58
2024-01-18T01:51:14.710Z,-0.57
2024-01-18T01:52:18.328Z,-0.57
2024-01-18T01:53:21.545Z,-0.55
2024-01-18T01:54:29.996Z,-0.56
2024-01-18T01:55:33.101Z,-0.56
2024-01-18T01:56:36.989Z,-0.56
2024-01-18T01:57:39.242Z,-0.52
2024-01-18T01:58:41.290Z,-0.51
2024-01-18T01:59:44.056Z,-0.51
2024-01-18T02:00:46.252Z,-0.56
2024-01-18T02:01:49.055Z,-0.57
2024-01-18T02:02:52.303Z,-0.56
2024-01-18T02:03:54.377Z,-0.55
2024-01-18T02:04:56.449Z,-0.57
2024-01-18T02:05:58.704Z,-0.56
2024-01-18T02:07:00.959Z,-0.57
2024-01-18T02:08:03.065Z,-0.56
2024-01-18T02:09:05.209Z,-0.54
2024-01-18T02:10:11.064Z,-0.52
2024-01-18T02:11:13.892Z,-0.52
2024-01-18T02:12:16.278Z,-0.51
2024-01-18T02:13:18.905Z,-0.53
2024-01-18T02:14:20.911Z,-0.51
2024-01-18T02:15:22.941Z,-0.52
2024-01-18T02:16:25.221Z,-0.53
2024-01-18T02:17:27.404Z,-0.56
2024-01-18T02:18:29.672Z,-0.60
2024-01-18T02:19:32.156Z,-0.63
2024-01-18T02:20:34.179Z,-0.64
2024-01-18T02:21:36.229Z,-0.65
2024-01-18T02:22:45.645Z,-0.67
2024-01-18T02:23:53.875Z,-0.65
2024-01-18T02:25:05.048Z,-0.64
2024-01-18T02:26:07.039Z,-0.64
2024-01-18T02:27:09.037Z,-0.66
2024-01-18T02:28:12.273Z,-0.66
2024-01-18T02:29:14.255Z,-0.67
2024-01-18T02:30:16.317Z,-0.70
2024-01-18T02:31:18.340Z,-0.70
2024-01-18T02:32:20.349Z,-0.70
2024-01-18T02:33:22.500Z,-0.70
2024-01-18T02:34:24.797Z,-0.74
2024-01-18T02:35:26.843Z,-0.73
2024-01-18T02:36:28.946Z,-0.75
2024-01-18T02:37:31.650Z,-0.75
2024-01-18T02:38:33.650Z,-0.79
2024-01-18T02:39:36.360Z,-0.80
2024-01-18T02:40:38.636Z,-0.80
2024-01-18T02:41:42.279Z,-0.80
2024-01-18T02:42:44.422Z,-0.79
2024-01-18T02:43:46.626Z,-0.79
2024-01-18T02:44:49.070Z,-0.78
2024-01-18T02:45:51.071Z,-0.78
2024-01-18T02:46:53.354Z,-0.75
2024-01-18T02:47:55.479Z,-0.74
2024-01-18T02:48:57.606Z,-0.72
2024-01-18T02:49:59.702Z,-0.71
2024-01-18T02:51:01.729Z,-0.70
2024-01-18T02:52:04.190Z,-0.72
2024-01-18T02:53:06.164Z,-0.72
2024-01-18T02:54:08.227Z,-0.73
2024-01-18T02:55:10.654Z,-0.73
2024-01-18T02:56:12.709Z,-0.72
2024-01-18T02:57:14.748Z,-0.71
2024-01-18T02:58:18.110Z,-0.71
2024-01-18T02:59:20.071Z,-0.73
2024-01-18T03:00:22.138Z,-0.74
2024-01-18T03:01:24.152Z,-0.72
2024-01-18T03:02:26.163Z,-0.71
2024-01-18T03:03:28.190Z,-0.68
2024-01-18T03:04:30.238Z,-0.71
2024-01-18T03:05:32.839Z,-0.69
2024-01-18T03:06:34.943Z,-0.68
2024-01-18T03:07:37.001Z,-0.67
2024-01-18T03:08:38.981Z,-0.66
2024-01-18T03:09:41.230Z,-0.64
2024-01-18T03:10:43.288Z,-0.64
2024-01-18T03:11:45.271Z,-0.65
2024-01-18T03:12:47.417Z,-0.64
2024-01-18T03:13:49.435Z,-0.63
2024-01-18T03:14:51.423Z,-0.63
2024-01-18T03:15:53.392Z,-0.63
2024-01-18T03:16:55.378Z,-0.63
2024-01-18T03:17:57.533Z,-0.64
2024-01-18T03:18:59.630Z,-0.65
2024-01-18T03:20:01.740Z,-0.64
2024-01-18T03:21:07.072Z,-0.64
2024-01-18T03:22:13.499Z,-0.66
2024-01-18T03:23:17.049Z,-0.67
2024-01-18T03:24:19.633Z,-0.67
2024-01-18T03:25:21.650Z,-0.65
2024-01-18T03:26:23.619Z,-0.64
2024-01-18T03:27:25.611Z,-0.65
2024-01-18T03:28:28.092Z,-0.66
2024-01-18T03:29:30.055Z,-0.66
2024-01-18T03:30:32.056Z,-0.65
2024-01-18T03:31:34.045Z,-0.66
2024-01-18T03:32:36.141Z,-0.65
2024-01-18T03:33:38.727Z,-0.65
2024-01-18T03:34:40.868Z,-0.69
2024-01-18T03:35:43.668Z,-0.69
2024-01-18T03:36:45.775Z,-0.69
2024-01-18T03:37:48.057Z,-0.73
2024-01-18T03:38:50.066Z,-0.73
2024-01-18T03:39:52.145Z,-0.73
2024-01-18T03:40:54.121Z,-0.75
2024-01-18T03:41:56.130Z,-0.75
2024-01-18T03:42:58.106Z,-0.73
2024-01-18T03:44:00.118Z,-0.78
2024-01-18T03:45:02.454Z,-0.80
2024-01-18T03:46:04.528Z,-0.81
2024-01-18T03:47:06.578Z,-0.83
2024-01-18T03:48:08.763Z,-0.85
2024-01-18T03:49:10.881Z,-0.85
2024-01-18T03:50:12.936Z,-0.84
2024-01-18T03:51:14.939Z,-0.84
2024-01-18T03:52:17.745Z,-0.84
2024-01-18T03:53:19.961Z,-0.80
2024-01-18T03:54:22.035Z,-0.78
2024-01-18T03:55:24.026Z,-0.78
2024-01-18T03:56:26.095Z,-0.79
2024-01-18T03:57:28.163Z,-0.78
2024-01-18T03:58:30.179Z,-0.78
2024-01-18T03:59:32.208Z,-0.78
2024-01-18T04:00:34.272Z,-0.77
2024-01-18T04:01:36.396Z,-0.74
2024-01-18T04:02:38.424Z,-0.77
2024-01-18T04:03:43.751Z,-0.79
2024-01-18T04:04:46.021Z,-0.79
2024-01-18T04:05:48.081Z,-0.80
2024-01-18T04:06:50.524Z,-0.80
2024-01-18T04:07:52.985Z,-0.79
2024-01-18T04:08:54.945Z,-0.81
2024-01-18T04:09:57.886Z,-0.83
2024-01-18T04:11:00.202Z,-0.82
2024-01-18T04:12:02.201Z,-0.83
2024-01-18T04:13:04.340Z,-0.82
2024-01-18T04:14:06.415Z,-0.80
2024-01-18T04:15:08.821Z,-0.79
2024-01-18T04:16:10.816Z,-0.79
2024-01-18T04:17:13.336Z,-0.79
2024-01-18T04:18:15.493Z,-0.78
2024-01-18T04:19:17.695Z,-0.78
2024-01-18T04:20:24.172Z,-0.79
2024-01-18T04:21:26.153Z,-0.80
2024-01-18T04:22:28.273Z,-0.81
2024-01-18T04:23:30.259Z,-0.83
2024-01-18T04:24:32.726Z,-0.85
2024-01-18T04:25:34.772Z,-0.86
2024-01-18T04:26:36.821Z,-0.85
2024-01-18T04:27:39.074Z,-0.84
2024-01-18T04:28:41.151Z,-0.83
2024-01-18T04:29:43.155Z,-0.85
2024-01-18T04:30:45.189Z,-0.87
2024-01-18T04:31:47.535Z,-0.87
2024-01-18T04:32:49.571Z,-0.93
2024-01-18T04:33:51.764Z,-0.94
2024-01-18T04:34:53.919Z,-0.95
2024-01-18T04:35:55.909Z,-0.96
2024-01-18T04:36:58.308Z,-0.96
2024-01-18T04:38:00.352Z,-0.96
2024-01-18T04:39:02.393Z,-0.98
2024-01-18T04:40:04.819Z,-1.00
2024-01-18T04:41:06.782Z,-1.04
2024-01-18T04:42:10.055Z,-1.02
2024-01-18T04:43:12.121Z,-1.06
2024-01-18T04:44:14.421Z,-1.06
2024-01-18T04:45:16.460Z,-1.07
2024-01-18T04:46:18.522Z,-1.05
2024-01-18T04:47:20.686Z,-1.03
2024-01-18T04:48:23.911Z,-1.03
2024-01-18T04:49:26.459Z,-1.03
2024-01-18T04:50:28.486Z,-1.04
2024-01-18T04:51:30.562Z,-1.04
2024-01-18T04:52:33.489Z,-1.04
2024-01-18T04:53:35.563Z,-1.04
2024-01-18T04:54:37.580Z,-1.03
2024-01-18T04:55:39.671Z,-1.02
2024-01-18T04:56:41.699Z,-0.98
2024-01-18T04:57:44.945Z,-1.00
2024-01-18T04:58:47.146Z,-0.98
2024-01-18T04:59:49.151Z,-0.96
2024-01-18T05:00:51.356Z,-0.93
2024-01-18T05:01:53.476Z,-0.92
2024-01-18T05:02:55.439Z,-0.92
2024-01-18T05:03:57.414Z,-0.93
2024-01-18T05:04:59.489Z,-0.96
2024-01-18T05:06:01.821Z,-0.96
2024-01-18T05:07:04.343Z,-1.00
2024-01-18T05:08:06.406Z,-1.01
2024-01-18T05:09:11.046Z,-1.02
2024-01-18T05:10:13.429Z,-1.01
2024-01-18T05:11:15.415Z,-1.00
2024-01-18T05:12:17.489Z,-1.00
2024-01-18T05:13:19.587Z,-0.95
2024-01-18T05:14:22.785Z,-0.95
2024-01-18T05:15:26.360Z,-0.93
2024-01-18T05:16:28.635Z,-0.92
2024-01-18T05:17:37.062Z,-0.90
2024-01-18T05:18:39.240Z,-0.91
2024-01-18T05:19:41.318Z,-0.92
2024-01-18T05:20:43.339Z,-0.94
2024-01-18T05:21:45.382Z,-0.96
2024-01-18T05:22:47.480Z,-0.97
2024-01-18T05:23:50.412Z,-0.96
2024-01-18T05:24:52.411Z,-0.95
2024-01-18T05:25:54.440Z,-0.93
2024-01-18T05:26:56.401Z,-0.91
2024-01-18T05:27:58.398Z,-0.90
2024-01-18T05:29:00.501Z,-0.90
2024-01-18T05:30:05.989Z,-0.91
2024-01-18T05:31:08.697Z,-0.91
2024-01-18T05:32:10.723Z,-0.93
2024-01-18T05:33:12.803Z,-0.95
2024-01-18T05:34:14.920Z,-1.00
2024-01-18T05:35:16.935Z,-0.99
2024-01-18T05:36:18.987Z,-0.98
2024-01-18T05:37:23.969Z,-0.95
2024-01-18T05:38:25.942Z,-0.93
2024-01-18T05:39:28.676Z,-0.93
2024-01-18T05:40:30.702Z,-0.95
2024-01-18T05:41:32.689Z,-0.97
2024-01-18T05:42:34.747Z,-0.99
2024-01-18T05:43:36.760Z,-1.00
2024-01-18T05:44:38.764Z,-1.02
2024-01-18T05:45:40.874Z,-1.04
2024-01-18T05:46:42.870Z,-1.06
2024-01-18T05:47:44.871Z,-1.08
2024-01-18T05:48:46.908Z,-1.09
2024-01-18T05:49:49.632Z,-1.09
2024-01-18T05:50:51.715Z,-1.10
2024-01-18T05:51:53.779Z,-1.12
2024-01-18T05:52:55.797Z,-1.12
2024-01-18T05:53:57.805Z,-1.09
2024-01-18T05:55:00.105Z,-1.08
2024-01-18T05:56:02.377Z,-1.05
2024-01-18T05:57:05.635Z,-1.03
2024-01-18T05:58:07.692Z,-1.01
2024-01-18T05:59:09.664Z,-1.02
2024-01-18T06:00:12.077Z,-1.03
2024-01-18T06:01:14.665Z,-1.04
2024-01-18T06:02:16.809Z,-1.05
2024-01-18T06:03:19.718Z,-1.05
2024-01-18T06:04:21.778Z,-1.05
2024-01-18T06:05:23.776Z,-1.04
2024-01-18T06:06:26.880Z,-1.02
2024-01-18T06:07:29.089Z,-1.01
2024-01-18T06:08:31.236Z,-1.01
2024-01-18T06:09:33.427Z,-0.99
2024-01-18T06:10:35.540Z,-0.98
2024-01-18T06:11:37.518Z,-0.97
2024-01-18T06:12:39.718Z,-0.97
2024-01-18T06:13:42.745Z,-0.99
2024-01-18T06:14:45.300Z,-1.02
2024-01-18T06:15:47.474Z,-1.03
2024-01-18T06:16:49.518Z,-1.06
2024-01-18T06:17:51.591Z,-1.13
2024-01-18T06:18:54.366Z,-1.19
2024-01-18T06:19:57.032Z,-1.24
2024-01-18T06:20:59.181Z,-1.29
2024-01-18T06:22:01.605Z,-1.31
2024-01-18T06:23:03.622Z,-1.33
2024-01-18T06:24:06.075Z,-1.32
2024-01-18T06:25:08.109Z,-1.38
2024-01-18T06:26:12.643Z,-1.41
2024-01-18T06:27:14.724Z,-1.37
2024-01-18T06:28:16.780Z,-1.35
2024-01-18T06:29:18.834Z,-1.30
2024-01-18T06:30:21.010Z,-1.25
2024-01-18T06:31:27.500Z,-1.20
2024-01-18T06:32:29.564Z,-1.18
2024-01-18T06:33:31.712Z,-1.15
2024-01-18T06:34:33.851Z,-1.11
2024-01-18T06:35:35.870Z,-1.11
2024-01-18T06:36:40.725Z,-1.10
2024-01-18T06:37:42.973Z,-1.11
2024-01-18T06:38:44.970Z,-1.12
2024-01-18T06:39:47.404Z,-1.12
2024-01-18T06:40:49.764Z,-1.11
2024-01-18T06:41:51.734Z,-1.10
2024-01-18T06:42:53.741Z,-1.10
2024-01-18T06:43:56.390Z,-1.12
2024-01-18T06:44:58.512Z,-1.15
2024-01-18T06:46:00.605Z,-1.19
2024-01-18T06:47:02.696Z,-1.19
2024-01-18T06:48:04.957Z,-1.21
2024-01-18T06:49:07.082Z,-1.22
2024-01-18T06:50:11.115Z,-1.22
2024-01-18T06:51:16.043Z,-1.22
2024-01-18T06:52:18.074Z,-1.21
2024-01-18T06:53:20.134Z,-1.19
2024-01-18T06:54:23.296Z,-1.17
2024-01-18T06:55:25.292Z,-1.16
2024-01-18T06:56:27.979Z,-1.16
2024-01-18T06:57:30.062Z,-1.13
2024-01-18T06:58:32.071Z,-1.11
2024-01-18T06:59:34.046Z,-1.09
2024-01-18T07:00:36.231Z,-1.08
2024-01-18T07:01:38.324Z,-1.06
2024-01-18T07:02:40.380Z,-1.04
2024-01-18T07:03:43.688Z,-1.04
2024-01-18T07:04:46.497Z,-1.05
2024-01-18T07:05:49.967Z,-1.08
2024-01-18T07:06:52.003Z,-1.12
2024-01-18T07:07:54.215Z,-1.14
2024-01-18T07:08:56.204Z,-1.15
2024-01-18T07:09:58.268Z,-1.16
2024-01-18T07:11:02.598Z,-1.17
2024-01-18T07:12:05.053Z,-1.18
2024-01-18T07:13:07.299Z,-1.18
2024-01-18T07:14:09.344Z,-1.15
2024-01-18T07:15:11.345Z,-1.15
2024-01-18T07:16:13.472Z,-1.14
2024-01-18T07:17:15.449Z,-1.15
2024-01-18T07:18:17.528Z,-1.18
2024-01-18T07:19:19.652Z,-1.21
2024-01-18T07:20:21.756Z,-1.23
2024-01-18T07:21:24.044Z,-1.27
2024-01-18T07:22:27.460Z,-1.27
2024-01-18T07:23:29.435Z,-1.27
2024-01-18T07:24:32.233Z,-1.28
2024-01-18T07:25:34.296Z,-1.27
2024-01-18T07:26:36.279Z,-1.27
2024-01-18T07:27:38.302Z,-1.26
2024-01-18T07:28:40.277Z,-1.25
2024-01-18T07:29:42.251Z,-1.24
2024-01-18T07:30:44.607Z,-1.22
2024-01-18T07:31:48.264Z,-1.23
2024-01-18T07:32:50.621Z,-1.22
2024-01-18T07:33:52.742Z,-1.23
2024-01-18T07:34:54.828Z,-1.24
2024-01-18T07:35:56.845Z,-1.24
2024-01-18T07:36:59.517Z,-1.25
2024-01-18T07:38:01.748Z,-1.29
2024-01-18T07:39:04.053Z,-1.30
2024-01-18T07:40:07.347Z,-1.32
2024-01-18T07:41:09.307Z,-1.33
2024-01-18T07:42:11.307Z,-1.33
2024-01-18T07:43:13.920Z,-1.39
2024-01-18T07:44:15.930Z,-1.39
2024-01-18T07:45:17.926Z,-1.41
2024-01-18T07:46:19.920Z,-1.41
2024-01-18T07:47:21.891Z,-1.40
2024-01-18T07:48:24.000Z,-1.38
2024-01-18T07:49:26.072Z,-1.37
2024-01-18T07:50:35.021Z,-1.38
2024-01-18T07:51:38.906Z,-1.35
2024-01-18T07:52:41.126Z,-1.32
2024-01-18T07:53:43.100Z,-1.29
2024-01-18T07:54:45.168Z,-1.29
2024-01-18T07:55:47.286Z,-1.29
2024-01-18T07:56:49.315Z,-1.32
2024-01-18T07:57:51.479Z,-1.34
2024-01-18T07:58:53.490Z,-1.34
2024-01-18T07:59:55.460Z,-1.34
2024-01-18T08:00:57.635Z,-1.32
2024-01-18T08:02:00.693Z,-1.31
2024-01-18T08:03:03.253Z,-1.31
2024-01-18T08:04:06.858Z,-1.32
2024-01-18T08:05:09.109Z,-1.33
2024-01-18T08:06:12.400Z,-1.33
2024-01-18T08:07:14.619Z,-1.36
2024-01-18T08:08:16.642Z,-1.35
2024-01-18T08:09:18.672Z,-1.32
2024-01-18T08:10:20.742Z,-1.31
2024-01-18T08:11:22.733Z,-1.31
2024-01-18T08:12:24.740Z,-1.32
2024-01-18T08:13:26.710Z,-1.32
2024-01-18T08:14:28.668Z,-1.32
2024-01-18T08:15:30.737Z,-1.32
2024-01-18T08:16:32.736Z,-1.30
2024-01-18T08:17:34.785Z,-1.28
2024-01-18T08:18:37.857Z,-1.27
2024-01-18T08:19:40.885Z,-1.23
2024-01-18T08:20:43.699Z,-1.22
2024-01-18T08:21:45.728Z,-1.19
2024-01-18T08:22:47.815Z,-1.16
2024-01-18T08:23:49.856Z,-1.13
2024-01-18T08:24:51.935Z,-1.13
2024-01-18T08:25:54.012Z,-1.09
2024-01-18T08:26:56.024Z,-1.10
2024-01-18T08:27:58.422Z,-1.09
2024-01-18T08:29:00.454Z,-1.06
2024-01-18T08:30:02.510Z,-1.07
2024-01-18T08:31:04.633Z,-1.06
2024-01-18T08:32:07.255Z,-1.05
2024-01-18T08:33:09.732Z,-1.04
2024-01-18T08:34:12.075Z,-1.03
2024-01-18T08:35:14.074Z,-1.03
2024-01-18T08:36:16.242Z,-1.04
2024-01-18T08:37:18.420Z,-1.06
2024-01-18T08:38:22.110Z,-1.06
2024-01-18T08:39:24.370Z,-1.06
2024-01-18T08:40:26.383Z,-1.09
2024-01-18T08:41:28.395Z,-1.09
2024-01-18T08:42:30.403Z,-1.10
2024-01-18T08:43:32.544Z,-1.12
2024-01-18T08:44:34.803Z,-1.14
2024-01-18T08:45:37.958Z,-1.13
2024-01-18T08:46:40.589Z,-1.14
2024-01-18T08:47:42.599Z,-1.12
2024-01-18T08:48:44.751Z,-1.12
2024-01-18T08:49:46.820Z,-1.12
2024-01-18T08:50:49.042Z,-1.10
2024-01-18T08:51:51.130Z,-1.08
2024-01-18T08:52:53.177Z,-1.06
2024-01-18T08:53:55.149Z,-1.05
2024-01-18T08:54:57.149Z,-1.03
2024-01-18T08:55:59.180Z,-1.03
2024-01-18T08:57:01.232Z,-1.01
2024-01-18T08:58:03.212Z,-1.00
2024-01-18T08:59:05.196Z,-0.98
2024-01-18T09:00:07.774Z,-0.97
2024-01-18T09:01:09.917Z,-0.95
2024-01-18T09:02:20.350Z,-0.96
2024-01-18T09:03:25.622Z,-0.96
2024-01-18T09:04:27.672Z,-0.95
2024-01-18T09:05:29.700Z,-0.94
2024-01-18T09:06:31.776Z,-0.95
2024-01-18T09:07:33.944Z,-0.95
2024-01-18T09:08:36.038Z,-0.94
2024-01-18T09:09:38.041Z,-0.94
2024-01-18T09:10:40.026Z,-0.91
2024-01-18T09:11:42.705Z,-0.90
2024-01-18T09:12:47.142Z,-0.91
2024-01-18T09:13:49.301Z,-0.89
2024-01-18T09:14:51.265Z,-0.87
2024-01-18T09:15:53.356Z,-0.84
2024-01-18T09:16:55.364Z,-0.83
2024-01-18T09:17:57.398Z,-0.79
2024-01-18T09:19:13.361Z,-0.82
2024-01-18T09:20:17.114Z,-0.84
2024-01-18T09:21:19.511Z,-0.85
2024-01-18T09:22:21.813Z,-0.88
2024-01-18T09:23:23.795Z,-0.88
2024-01-18T09:24:25.844Z,-0.88
2024-01-18T09:25:28.082Z,-0.88
2024-01-18T09:26:30.124Z,-0.87
2024-01-18T09:27:32.197Z,-0.85
2024-01-18T09:28:34.242Z,-0.85
2024-01-18T09:29:36.454Z,-0.84
2024-01-18T09:30:41.339Z,-0.82
2024-01-18T09:31:45.450Z,-0.81
2024-01-18T09:32:49.122Z,-0.81
2024-01-18T09:33:51.261Z,-0.81
2024-01-18T09:34:53.332Z,-0.79
2024-01-18T09:35:55.380Z,-0.81
2024-01-18T09:36:58.391Z,-0.82
2024-01-18T09:38:00.722Z,-0.81
2024-01-18T09:39:02.889Z,-0.79
2024-01-18T09:40:05.563Z,-0.78
2024-01-18T09:41:08.501Z,-0.78
2024-01-18T09:42:15.705Z,-0.77
2024-01-18T09:43:19.602Z,-0.76
2024-01-18T09:44:31.414Z,-0.78
2024-01-18T09:45:36.727Z,-0.79
2024-01-18T09:46:39.721Z,-0.78
2024-01-18T09:47:43.875Z,-0.80
2024-01-18T09:48:46.319Z,-0.78
2024-01-18T09:49:49.445Z,-0.76
2024-01-18T09:50:53.021Z,-0.75
2024-01-18T09:51:59.064Z,-0.74
2024-01-18T09:53:01.061Z,-0.72
2024-01-18T09:54:03.063Z,-0.71
2024-01-18T09:55:05.576Z,-0.71
2024-01-18T09:56:26.209Z,-0.71
2024-01-18T09:57:33.688Z,-0.70
2024-01-18T09:58:35.898Z,-0.69
2024-01-18T09:59:39.387Z,-0.69
2024-01-18T10:00:47.805Z,-0.67
2024-01-18T10:01:50.189Z,-0.67
2024-01-18T10:02:53.762Z,-0.70
2024-01-18T10:03:56.271Z,-0.71
2024-01-18T10:05:01.498Z,-0.70
2024-01-18T10:06:03.861Z,-0.70
2024-01-18T10:07:06.160Z,-0.70
2024-01-18T10:08:08.424Z,-0.72
2024-01-18T10:09:15.950Z,-0.68
2024-01-18T10:10:19.759Z,-0.69
2024-01-18T10:11:21.805Z,-0.71
2024-01-18T10:12:30.288Z,-0.71
2024-01-18T10:13:57.500Z,-0.68
2024-01-18T10:14:59.585Z,-0.66
2024-01-18T10:16:01.627Z,-0.66
2024-01-18T10:17:03.621Z,-0.64
2024-01-18T10:18:07.427Z,-0.62
2024-01-18T10:19:19.562Z,-0.61
2024-01-18T10:20:24.151Z,-0.59
2024-01-18T10:21:26.347Z,-0.56
2024-01-18T10:22:29.802Z,-0.54
2024-01-18T10:23:31.786Z,-0.54
2024-01-18T10:24:40.780Z,-0.54
2024-01-18T10:25:45.745Z,-0.55
2024-01-18T10:26:47.757Z,-0.51
2024-01-18T10:27:53.547Z,-0.50
2024-01-18T10:29:00.424Z,-0.48
2024-01-18T10:30:04.226Z,-0.48
2024-01-18T10:31:06.209Z,-0.47
2024-01-18T10:32:08.663Z,-0.46
2024-01-18T10:33:13.044Z,-0.45
2024-01-18T10:34:15.940Z,-0.42
2024-01-18T10:35:21.228Z,-0.43
2024-01-18T10:36:23.230Z,-0.42
2024-01-18T10:37:25.229Z,-0.40
2024-01-18T10:38:40.790Z,-0.40
2024-01-18T10:39:47.413Z,-0.40
2024-01-18T10:40:51.374Z,-0.39
2024-01-18T10:41:53.598Z,-0.37
2024-01-18T10:42:56.334Z,-0.37
2024-01-18T10:43:58.408Z,-0.37
2024-01-18T10:45:01.454Z,-0.34
2024-01-18T10:46:04.590Z,-0.36
2024-01-18T10:47:14.320Z,-0.35
2024-01-18T10:48:16.432Z,-0.34
2024-01-18T10:49:18.503Z,-0.33
2024-01-18T10:50:20.757Z,-0.32
2024-01-18T10:51:24.899Z,-0.33
2024-01-18T10:52:27.245Z,-0.33
2024-01-18T10:53:37.973Z,-0.31
2024-01-18T10:54:46.810Z,-0.29
2024-01-18T10:55:55.983Z,-0.31
2024-01-18T10:56:58.838Z,-0.33
2024-01-18T10:58:00.899Z,-0.31
2024-01-18T10:59:02.961Z,-0.30
2024-01-18T11:00:08.478Z,-0.29
2024-01-18T11:01:11.894Z,-0.27
2024-01-18T11:02:14.549Z,-0.25
2024-01-18T11:03:19.885Z,-0.25
2024-01-18T11:04:22.104Z,-0.23
2024-01-18T11:05:24.591Z,-0.22
2024-01-18T11:06:28.084Z,-0.23
2024-01-18T11:07:30.410Z,-0.22
2024-01-18T11:08:34.286Z,-0.21
2024-01-18T11:09:37.929Z,-0.21
2024-01-18T11:10:43.804Z,-0.22
2024-01-18T11:11:45.967Z,-0.23
2024-01-18T11:12:50.585Z,-0.25
2024-01-18T11:13:53.069Z,-0.23
2024-01-18T11:14:55.284Z,-0.22
2024-01-18T11:15:57.524Z,-0.20
2024-01-18T11:17:12.557Z,-0.20
2024-01-18T11:18:15.700Z,-0.21
2024-01-18T11:19:44.829Z,-0.20
2024-01-18T11:20:58.718Z,-0.19
2024-01-18T11:22:01.070Z,-0.18
2024-01-18T11:23:04.656Z,-0.15
2024-01-18T11:24:11.830Z,-0.14
2024-01-18T11:25:20.706Z,-0.13
2024-01-18T11:26:22.819Z,-0.12
2024-01-18T11:27:26.024Z,-0.15
2024-01-18T11:28:28.186Z,-0.15
2024-01-18T11:29:35.871Z,-0.15
2024-01-18T11:30:40.846Z,-0.13
2024-01-18T11:31:51.868Z,-0.17
2024-01-18T11:32:54.744Z,-0.19
2024-01-18T11:33:56.857Z,-0.20
2024-01-18T11:35:16.350Z,-0.21
2024-01-18T11:36:18.482Z,-0.19
2024-01-18T11:37:25.618Z,-0.19
2024-01-18T11:38:34.780Z,-0.17
2024-01-18T11:39:48.926Z,-0.16
2024-01-18T11:40:53.078Z,-0.17
2024-01-18T11:41:59.494Z,-0.17
2024-01-18T11:43:01.650Z,-0.15
2024-01-18T11:44:10.889Z,-0.16
2024-01-18T11:45:17.911Z,-0.18
2024-01-18T11:46:38.195Z,-0.20
2024-01-18T11:47:40.693Z,-0.21
2024-01-18T11:48:42.862Z,-0.22
2024-01-18T11:49:45.088Z,-0.23
2024-01-18T11:50:47.433Z,-0.23
2024-01-18T11:51:50.464Z,-0.25
2024-01-18T11:52:52.734Z,-0.26
2024-01-18T11:53:55.741Z,-0.25
2024-01-18T11:54:58.036Z,-0.28
2024-01-18T11:56:02.907Z,-0.30
2024-01-18T11:57:14.114Z,-0.29
2024-01-18T11:58:16.268Z,-0.28
2024-01-18T11:59:18.329Z,-0.28
2024-01-18T12:00:20.677Z,-0.27
2024-01-18T12:01:23.338Z,-0.27
2024-01-18T12:02:26.289Z,-0.26
2024-01-18T12:03:28.539Z,-0.25
2024-01-18T12:04:30.682Z,-0.25
2024-01-18T12:05:32.694Z,-0.24
2024-01-18T12:06:34.938Z,-0.26
2024-01-18T12:07:37.339Z,-0.27
2024-01-18T12:08:39.346Z,-0.31
2024-01-18T12:09:41.412Z,-0.32
2024-01-18T12:11:47.354Z,-0.37
2024-01-18T12:12:51.742Z,-0.36
2024-01-18T12:13:53.905Z,-0.36
2024-01-18T12:14:55.940Z,-0.35
2024-01-18T12:15:57.977Z,-0.37
2024-01-18T12:17:01.330Z,-0.37
2024-01-18T12:18:03.817Z,-0.38
2024-01-18T12:19:07.117Z,-0.37
2024-01-18T12:20:18.895Z,-0.37
2024-01-18T12:21:21.107Z,-0.37
2024-01-18T12:22:27.002Z,-0.37
2024-01-18T12:23:30.190Z,-0.35
2024-01-18T12:24:33.277Z,-0.36
2024-01-18T12:25:36.356Z,-0.35
2024-01-18T12:26:39.927Z,-0.33
2024-01-18T12:27:42.554Z,-0.33
2024-01-18T12:28:44.661Z,-0.31
2024-01-18T12:29:47.700Z,-0.30
2024-01-18T12:30:49.924Z,-0.31
2024-01-18T12:31:51.951Z,-0.30
2024-01-18T12:32:53.998Z,-0.29
2024-01-18T12:33:56.082Z,-0.28
2024-01-18T12:34:58.817Z,-0.26
2024-01-18T12:36:02.960Z,-0.25
2024-01-18T12:37:06.028Z,-0.24
2024-01-18T12:38:08.254Z,-0.21
2024-01-18T12:39:11.892Z,-0.21
2024-01-18T12:40:14.042Z,-0.21
2024-01-18T12:41:16.092Z,-0.18
2024-01-18T12:42:18.122Z,-0.16
2024-01-18T12:43:20.156Z,-0.13
2024-01-18T12:44:23.835Z,-0.11
2024-01-18T12:45:26.139Z,-0.11
2024-01-18T12:46:28.344Z,-0.10
2024-01-18T12:47:30.376Z,-0.10
2024-01-18T12:48:32.689Z,-0.09
2024-01-18T12:49:35.549Z,-0.08
2024-01-18T12:50:38.283Z,-0.06
2024-01-18T12:51:40.595Z,-0.05
2024-01-18T12:52:42.818Z,-0.02
2024-01-18T12:53:45.115Z,-0.01
2024-01-18T12:54:47.153Z,0.02
2024-01-18T12:55:49.157Z,0.03
2024-01-18T12:57:00.012Z,0.06
2024-01-18T12:58:03.646Z,0.07
2024-01-18T12:59:10.677Z,0.07
2024-01-18T13:00:16.166Z,0.09
2024-01-18T13:01:34.761Z,0.11
2024-01-18T13:02:37.427Z,0.12
2024-01-18T13:03:39.481Z,0.17
2024-01-18T13:04:41.532Z,0.14
2024-01-18T13:05:48.239Z,0.14
2024-01-18T13:06:57.397Z,0.12
2024-01-18T13:08:04.589Z,0.13
2024-01-18T13:09:06.621Z,0.15
2024-01-18T13:10:09.064Z,0.15
2024-01-18T13:11:11.089Z,0.16
2024-01-18T13:12:13.154Z,0.16
2024-01-18T13:13:16.470Z,0.15
2024-01-18T13:14:18.556Z,0.14
2024-01-18T13:15:20.566Z,0.14
2024-01-18T13:16:26.099Z,0.14
2024-01-18T13:17:28.183Z,0.14
2024-01-18T13:18:30.310Z,0.15
2024-01-18T13:19:32.788Z,0.13
2024-01-18T13:20:34.917Z,0.11
2024-01-18T13:21:37.666Z,0.12
2024-01-18T13:22:39.746Z,0.12
2024-01-18T13:23:41.757Z,0.15
2024-01-18T13:24:44.954Z,0.16
2024-01-18T13:25:47.032Z,0.16
2024-01-18T13:26:49.497Z,0.14
2024-01-18T13:27:51.591Z,0.15
2024-01-18T13:28:53.860Z,0.16
2024-01-18T13:29:55.844Z,0.16
2024-01-18T13:30:57.907Z,0.18
2024-01-18T13:32:00.000Z,0.18
2024-01-18T13:33:06.899Z,0.18